TimeEDT,TemperatureF,Dew PointF,Humidity,Sea Level PressureIn,VisibilityMPH,Wind Direction,Wind SpeedMPH,Gust SpeedMPH,PrecipitationIn,Events,Conditions,WindDirDegrees,DateUTC
12:53 AM,63.0,55.9,78,30.12,10.0,NE,12.7,-,N/A,,Clear,40,2013-04-23 04:53:00
1:53 AM,63.0,57.0,81,30.12,10.0,NNE,9.2,-,N/A,,Clear,30,2013-04-23 05:53:00
2:53 AM,62.1,57.0,84,30.09,10.0,North,6.9,-,N/A,,Clear,10,2013-04-23 06:53:00
3:53 AM,62.1,55.9,80,30.08,10.0,NNE,9.2,-,N/A,,Clear,30,2013-04-23 07:53:00
4:53 AM,62.1,55.0,78,30.08,10.0,NNE,11.5,-,N/A,,Partly Cloudy,30,2013-04-23 08:53:00
5:53 AM,62.1,55.0,78,30.09,10.0,NNE,11.5,-,N/A,,Partly Cloudy,30,2013-04-23 09:53:00
6:53 AM,59.0,57.0,93,30.11,10.0,NNW,9.2,-,N/A,,Partly Cloudy,340,2013-04-23 10:53:00
7:53 AM,59.0,57.0,93,30.13,9.0,North,9.2,-,N/A,,Partly Cloudy,350,2013-04-23 11:53:00
8:53 AM,61.0,57.0,87,30.15,10.0,North,10.4,-,N/A,,Partly Cloudy,360,2013-04-23 12:53:00
9:53 AM,64.0,55.9,75,30.17,10.0,North,10.4,-,N/A,,Partly Cloudy,10,2013-04-23 13:53:00
10:53 AM,66.9,54.0,63,30.17,10.0,NE,10.4,-,N/A,,Partly Cloudy,40,2013-04-23 14:53:00
11:53 AM,68.0,52.0,56,30.17,10.0,NE,12.7,-,N/A,,Scattered Clouds,40,2013-04-23 15:53:00
12:53 PM,69.1,53.1,57,30.16,10.0,NE,9.2,-,N/A,,Scattered Clouds,40,2013-04-23 16:53:00
1:53 PM,70.0,52.0,53,30.15,10.0,NNE,10.4,-,N/A,,Partly Cloudy,30,2013-04-23 17:53:00
2:53 PM,70.0,52.0,53,30.14,10.0,NE,10.4,-,N/A,,Partly Cloudy,50,2013-04-23 18:53:00
3:53 PM,69.1,53.1,57,30.14,10.0,NE,12.7,-,N/A,,Partly Cloudy,40,2013-04-23 19:53:00
4:53 PM,68.0,53.1,59,30.13,10.0,ENE,10.4,-,N/A,,Partly Cloudy,70,2013-04-23 20:53:00
5:53 PM,66.9,53.1,61,30.13,10.0,East,10.4,-,N/A,,Partly Cloudy,80,2013-04-23 21:53:00
6:53 PM,64.9,54.0,68,30.14,10.0,ENE,6.9,-,N/A,,Partly Cloudy,70,2013-04-23 22:53:00
7:53 PM,64.0,54.0,70,30.14,10.0,East,9.2,-,N/A,,Partly Cloudy,80,2013-04-23 23:53:00
8:53 PM,62.1,55.0,78,30.14,10.0,East,5.8,-,N/A,,Clear,80,2013-04-24 00:53:00
9:53 PM,62.1,55.0,78,30.16,10.0,East,5.8,-,N/A,,Clear,80,2013-04-24 01:53:00
10:53 PM,61.0,55.9,83,30.16,10.0,ENE,4.6,-,N/A,,Clear,70,2013-04-24 02:53:00
11:53 PM,61.0,57.0,87,30.15,10.0,NE,4.6,-,N/A,,Clear,50,2013-04-24 03:53:00